createdAt,value
2023-07-03T00:02:01.511Z,18.20
2023-07-03T00:04:37.009Z,19.10
2023-07-03T00:07:04.692Z,18.85
2023-07-03T00:09:31.469Z,18.73
2023-07-03T00:12:00.282Z,19.67
2023-07-03T00:14:30.025Z,20.38
2023-07-03T00:16:56.834Z,19.45
2023-07-03T00:19:27.704Z,19.27
2023-07-03T00:21:54.465Z,19.73
2023-07-03T00:24:21.129Z,19.80
2023-07-03T00:26:50.176Z,21.00
2023-07-03T00:29:16.821Z,20.25
2023-07-03T00:31:45.823Z,20.13
2023-07-03T00:34:12.534Z,20.58
2023-07-03T00:36:41.401Z,19.85
2023-07-03T00:39:10.292Z,19.58
2023-07-03T00:41:39.361Z,19.67
2023-07-03T00:44:09.710Z,20.42
2023-07-03T00:46:36.635Z,20.10
2023-07-03T00:49:04.791Z,20.65
2023-07-03T00:51:34.030Z,19.75
2023-07-03T00:54:00.680Z,20.75
2023-07-03T00:56:29.528Z,20.55
2023-07-03T00:58:58.482Z,20.10
2023-07-03T01:01:45.008Z,20.23
2023-07-03T01:04:17.279Z,19.88
2023-07-03T01:06:47.642Z,20.83
2023-07-03T01:09:17.507Z,20.90
2023-07-03T01:11:44.575Z,21.85
2023-07-03T01:14:11.451Z,21.83
2023-07-03T01:16:39.082Z,20.92
2023-07-03T01:19:09.151Z,21.95
2023-07-03T01:22:05.194Z,22.92
2023-07-03T01:24:33.130Z,21.63
2023-07-03T01:27:03.633Z,20.90
2023-07-03T01:29:30.452Z,21.38
2023-07-03T01:31:59.830Z,21.73
2023-07-03T01:34:27.326Z,20.58
2023-07-03T01:36:54.677Z,21.42
2023-07-03T01:39:23.566Z,22.42
2023-07-03T01:41:50.308Z,22.02
2023-07-03T01:44:16.960Z,21.75
2023-07-03T01:46:43.707Z,22.05
2023-07-03T01:49:16.322Z,22.65
2023-07-03T01:51:55.101Z,21.77
2023-07-03T01:54:27.169Z,23.75
2023-07-03T01:56:53.927Z,22.13
2023-07-03T01:59:22.462Z,22.67
2023-07-03T02:02:18.359Z,22.17
2023-07-03T02:04:59.223Z,22.58
2023-07-03T02:07:27.187Z,22.63
2023-07-03T02:09:53.958Z,22.05
2023-07-03T02:12:20.686Z,22.13
2023-07-03T02:14:50.251Z,22.60
2023-07-03T02:17:17.025Z,23.13
2023-07-03T02:19:48.974Z,22.17
2023-07-03T02:22:15.709Z,22.40
2023-07-03T02:24:42.398Z,22.35
2023-07-03T02:27:09.133Z,21.75
2023-07-03T02:29:35.806Z,23.63
2023-07-03T02:32:04.708Z,22.92
2023-07-03T02:34:33.330Z,23.10
2023-07-03T02:37:02.195Z,23.63
2023-07-03T02:39:30.980Z,21.90
2023-07-03T02:41:57.734Z,23.27
2023-07-03T02:44:26.584Z,22.05
2023-07-03T02:46:53.319Z,22.50
2023-07-03T02:49:20.071Z,23.38
2023-07-03T02:51:46.873Z,22.42
2023-07-03T02:54:13.572Z,22.52
2023-07-03T02:56:42.458Z,22.45
2023-07-03T02:59:09.125Z,22.80
2023-07-03T03:01:37.315Z,21.77
2023-07-03T03:04:04.362Z,22.33
2023-07-03T03:06:33.236Z,23.23
2023-07-03T03:09:00.209Z,22.88
2023-07-03T03:11:31.573Z,21.83
2023-07-03T03:14:17.210Z,22.42
2023-07-03T03:16:43.869Z,22.38
2023-07-03T03:19:12.872Z,22.48
2023-07-03T03:21:39.629Z,21.85
2023-07-03T03:24:09.291Z,22.52
2023-07-03T03:26:36.718Z,22.52
2023-07-03T03:29:05.736Z,23.00
2023-07-03T03:31:32.394Z,21.98
2023-07-03T03:33:59.402Z,21.70
2023-07-03T03:36:27.750Z,21.48
2023-07-03T03:38:54.776Z,22.05
2023-07-03T03:41:23.718Z,21.88
2023-07-03T03:43:50.347Z,22.80
2023-07-03T03:46:17.101Z,21.75
2023-07-03T03:48:43.843Z,22.92
2023-07-03T03:51:12.962Z,22.67
2023-07-03T03:53:40.342Z,22.48
2023-07-03T03:56:09.264Z,20.95
2023-07-03T03:58:36.103Z,23.35
2023-07-03T04:01:03.366Z,24.80
2023-07-03T04:03:32.218Z,22.50
2023-07-03T04:06:01.198Z,22.25
2023-07-03T04:08:30.198Z,22.00
2023-07-03T04:10:57.012Z,23.08
2023-07-03T04:13:26.576Z,21.77
2023-07-03T04:15:56.475Z,21.52
2023-07-03T04:18:23.936Z,21.40
2023-07-03T04:20:50.849Z,22.75
2023-07-03T04:23:17.725Z,21.63
2023-07-03T04:25:44.518Z,22.30
2023-07-03T04:28:12.005Z,22.75
2023-07-03T04:30:38.939Z,22.20
2023-07-03T04:33:05.886Z,22.17
2023-07-03T04:35:32.760Z,22.33
2023-07-03T04:38:02.525Z,23.05
2023-07-03T04:40:31.008Z,21.85
2023-07-03T04:42:58.195Z,21.98
2023-07-03T04:45:29.248Z,22.13
2023-07-03T04:50:26.419Z,22.80
2023-07-03T04:52:53.476Z,21.20
2023-07-03T04:55:20.310Z,21.40
2023-07-03T04:57:47.119Z,22.02
2023-07-03T05:00:16.438Z,40.38
2023-07-03T05:02:49.882Z,21.55
2023-07-03T05:05:17.637Z,22.13
2023-07-03T05:07:44.936Z,22.25
2023-07-03T05:10:12.957Z,23.63
2023-07-03T05:12:39.733Z,23.23
2023-07-03T05:15:09.364Z,23.17
2023-07-03T05:17:39.596Z,23.20
2023-07-03T05:20:14.338Z,22.05
2023-07-03T05:22:44.726Z,22.90
2023-07-03T05:25:13.031Z,21.73
2023-07-03T05:27:42.203Z,21.80
2023-07-03T05:30:09.453Z,21.48
2023-07-03T05:32:36.475Z,21.98
2023-07-03T05:35:04.691Z,21.98
2023-07-03T05:37:33.806Z,22.88
2023-07-03T05:40:02.882Z,22.10
2023-07-03T05:42:29.605Z,22.10
2023-07-03T05:44:58.586Z,23.05
2023-07-03T05:47:25.280Z,20.77
2023-07-03T05:49:53.565Z,22.33
2023-07-03T05:52:20.408Z,20.83
2023-07-03T05:54:47.201Z,21.95
2023-07-03T05:57:13.979Z,22.30
2023-07-03T05:59:45.833Z,22.02
2023-07-03T06:02:13.854Z,21.17
2023-07-03T06:04:40.708Z,21.00
2023-07-03T06:07:07.759Z,21.20
2023-07-03T06:09:36.389Z,20.75
2023-07-03T06:12:04.103Z,23.27
2023-07-03T06:14:31.228Z,21.80
2023-07-03T06:16:59.999Z,21.75
2023-07-03T06:19:27.284Z,21.67
2023-07-03T06:21:54.506Z,21.52
2023-07-03T06:24:29.423Z,22.05
2023-07-03T06:26:58.780Z,21.42
2023-07-03T06:29:27.636Z,23.55
2023-07-03T06:31:56.857Z,22.35
2023-07-03T06:34:25.884Z,21.27
2023-07-03T06:36:53.129Z,22.15
2023-07-03T06:39:19.878Z,20.77
2023-07-03T06:41:46.586Z,21.63
2023-07-03T06:44:14.958Z,21.45
2023-07-03T06:46:44.660Z,21.25
2023-07-03T06:49:11.453Z,21.42
2023-07-03T06:51:40.291Z,21.98
2023-07-03T06:54:09.298Z,21.20
2023-07-03T06:56:35.946Z,20.90
2023-07-03T06:59:02.960Z,22.52
2023-07-03T07:01:30.194Z,24.52
2023-07-03T07:03:57.223Z,24.95
2023-07-03T07:06:25.764Z,27.15
2023-07-03T07:08:52.708Z,25.73
2023-07-03T07:11:26.062Z,23.00
2023-07-03T07:13:53.339Z,24.55
2023-07-03T07:16:38.311Z,24.33
2023-07-03T07:19:06.480Z,24.35
2023-07-03T07:21:36.499Z,22.83
2023-07-03T07:24:06.655Z,22.15
2023-07-03T07:26:35.152Z,21.27
2023-07-03T07:29:02.287Z,21.33
2023-07-03T07:31:32.320Z,21.90
2023-07-03T07:34:02.174Z,20.08
2023-07-03T07:36:28.851Z,20.63
2023-07-03T07:38:56.902Z,20.35
2023-07-03T07:41:29.121Z,19.83
2023-07-03T07:43:56.268Z,20.05
2023-07-03T07:46:26.703Z,19.85
2023-07-03T07:48:53.468Z,19.80
2023-07-03T07:51:20.184Z,19.58
2023-07-03T07:53:46.899Z,20.05
2023-07-03T07:56:14.834Z,19.67
2023-07-03T07:58:43.706Z,18.85
2023-07-03T08:01:12.507Z,20.27
2023-07-03T08:03:40.863Z,19.27
2023-07-03T08:06:07.612Z,18.40
2023-07-03T08:08:37.878Z,19.20
2023-07-03T08:11:05.574Z,18.30
2023-07-03T08:13:33.121Z,19.13
2023-07-03T08:15:59.968Z,19.10
2023-07-03T08:18:29.856Z,17.88
2023-07-03T08:20:56.864Z,18.30
2023-07-03T08:23:23.867Z,17.52
2023-07-03T08:25:52.411Z,18.20
2023-07-03T08:28:21.948Z,17.65
2023-07-03T08:30:50.874Z,17.83
2023-07-03T08:33:17.689Z,17.27
2023-07-03T08:38:16.625Z,17.95
2023-07-03T08:40:45.538Z,17.50
2023-07-03T08:43:18.112Z,16.88
2023-07-03T08:45:50.531Z,16.63
2023-07-03T08:48:22.422Z,16.40
2023-07-03T08:50:51.937Z,16.23
2023-07-03T08:53:26.299Z,16.02
2023-07-03T08:56:10.154Z,16.13
2023-07-03T08:58:39.349Z,16.00
2023-07-03T09:01:46.850Z,15.98
2023-07-03T09:04:44.432Z,15.68
2023-07-03T09:07:14.425Z,17.00
2023-07-03T09:09:49.267Z,17.13
2023-07-03T09:12:24.474Z,15.70
2023-07-03T09:14:59.284Z,15.93
2023-07-03T09:17:26.430Z,16.63
2023-07-03T09:19:53.785Z,16.15
2023-07-03T09:22:35.028Z,15.35
2023-07-03T09:25:02.482Z,15.60
2023-07-03T09:27:30.024Z,15.48
2023-07-03T09:30:03.147Z,15.27
2023-07-03T09:32:31.072Z,14.95
2023-07-03T09:35:03.642Z,14.77
2023-07-03T09:37:33.084Z,14.60
2023-07-03T09:40:00.014Z,15.55
2023-07-03T09:42:27.124Z,15.02
2023-07-03T09:44:55.906Z,15.68
2023-07-03T09:47:27.217Z,14.95
2023-07-03T09:49:56.993Z,15.00
2023-07-03T09:52:24.775Z,14.70
2023-07-03T09:54:51.536Z,14.52
2023-07-03T09:57:21.232Z,15.80
2023-07-03T09:59:49.104Z,14.43
2023-07-03T10:07:20.710Z,14.60
2023-07-03T10:12:29.770Z,14.07
2023-07-03T10:15:09.594Z,14.85
2023-07-03T10:17:43.435Z,13.90
2023-07-03T10:20:15.124Z,14.05
2023-07-03T10:22:44.758Z,14.80
2023-07-03T10:25:16.791Z,15.00
2023-07-03T10:27:46.305Z,14.10
2023-07-03T10:30:16.450Z,13.93
2023-07-03T10:32:44.890Z,14.17
2023-07-03T10:35:14.989Z,13.93
2023-07-03T10:38:11.501Z,13.55
2023-07-03T10:40:49.397Z,13.80
2023-07-03T10:43:16.572Z,13.48
2023-07-03T10:45:43.336Z,13.90
2023-07-03T10:48:16.873Z,13.38
2023-07-03T10:51:05.502Z,13.07
2023-07-03T10:53:39.113Z,15.27
2023-07-03T10:56:14.792Z,13.95
2023-07-03T10:59:00.422Z,13.88
2023-07-03T11:01:43.595Z,14.55
2023-07-03T11:04:25.484Z,14.93
2023-07-03T11:07:08.845Z,15.40
2023-07-03T11:09:53.000Z,14.65
2023-07-03T11:12:30.814Z,16.55
2023-07-03T11:15:28.574Z,14.93
2023-07-03T11:23:40.979Z,15.25
2023-07-03T11:28:51.486Z,14.77
2023-07-03T11:31:20.901Z,14.18
2023-07-03T11:37:02.041Z,14.05
2023-07-03T11:44:32.577Z,13.82
2023-07-03T11:47:07.800Z,13.95
2023-07-03T11:49:36.872Z,14.20
2023-07-03T11:52:05.620Z,13.73
2023-07-03T11:54:36.487Z,14.95
2023-07-03T11:57:36.408Z,14.73
2023-07-03T12:00:30.355Z,13.95
2023-07-03T12:03:05.667Z,14.18
2023-07-03T12:05:53.679Z,14.45
2023-07-03T12:08:20.509Z,13.68
2023-07-03T12:10:59.091Z,14.07
2023-07-03T12:13:41.085Z,12.60
2023-07-03T12:16:14.680Z,14.02
2023-07-03T12:18:43.556Z,13.38
2023-07-03T12:21:10.316Z,12.90
2023-07-03T12:23:42.742Z,12.70
2023-07-03T12:26:11.587Z,12.82
2023-07-03T12:28:40.771Z,12.13
2023-07-03T12:31:15.889Z,12.98
2023-07-03T12:33:58.790Z,12.55
2023-07-03T12:36:35.052Z,12.10
2023-07-03T12:39:17.362Z,12.05
2023-07-03T12:41:44.369Z,11.93
2023-07-03T12:44:12.115Z,11.45
2023-07-03T12:46:46.542Z,11.70
2023-07-03T12:49:21.820Z,10.52
2023-07-03T12:51:53.248Z,10.93
2023-07-03T12:54:21.765Z,11.10
2023-07-03T12:56:49.722Z,11.07
2023-07-03T12:59:19.778Z,10.68
2023-07-03T13:01:51.233Z,11.05
2023-07-03T13:04:33.144Z,11.32
2023-07-03T13:06:59.950Z,10.52
2023-07-03T13:09:26.693Z,10.55
2023-07-03T13:11:55.705Z,10.40
2023-07-03T13:14:27.409Z,10.10
2023-07-03T13:16:55.679Z,10.45
2023-07-03T13:19:32.621Z,10.63
2023-07-03T13:21:59.970Z,10.40
2023-07-03T13:24:27.773Z,10.68
2023-07-03T13:26:57.017Z,10.05
2023-07-03T13:29:37.149Z,10.93
2023-07-03T13:32:19.902Z,10.38
2023-07-03T13:35:17.275Z,9.57
2023-07-03T13:37:45.204Z,9.35
2023-07-03T13:40:12.321Z,9.45
2023-07-03T13:42:39.041Z,9.65
2023-07-03T13:45:06.170Z,9.80
2023-07-03T13:47:32.921Z,9.35
2023-07-03T13:49:59.615Z,10.18
2023-07-03T13:52:26.385Z,11.40
2023-07-03T13:54:53.171Z,9.60
2023-07-03T13:57:19.877Z,9.18
2023-07-03T13:59:46.555Z,9.68
2023-07-03T14:02:15.984Z,12.82
2023-07-03T14:04:45.403Z,9.75
2023-07-03T14:07:12.277Z,8.80
2023-07-03T14:09:41.202Z,11.02
2023-07-03T14:12:10.183Z,10.00
2023-07-03T14:14:39.468Z,11.15
2023-07-03T14:17:06.232Z,9.02
2023-07-03T14:19:35.193Z,11.15
2023-07-03T14:22:01.996Z,9.30
2023-07-03T14:24:31.708Z,9.27
2023-07-03T14:26:58.433Z,8.60
2023-07-03T14:29:27.409Z,11.35
2023-07-03T14:31:54.026Z,9.88
2023-07-03T14:34:20.659Z,8.75
2023-07-03T14:36:50.150Z,8.65
2023-07-03T14:39:20.023Z,8.98
2023-07-03T14:41:46.757Z,9.90
2023-07-03T14:44:13.547Z,8.45
2023-07-03T14:46:40.384Z,9.63
2023-07-03T14:49:07.218Z,9.20
2023-07-03T14:51:33.903Z,8.80
2023-07-03T14:54:03.203Z,9.43
2023-07-03T14:56:32.554Z,9.75
2023-07-03T14:58:59.236Z,8.98
2023-07-03T15:01:28.894Z,7.78
2023-07-03T15:03:58.136Z,9.55
2023-07-03T15:06:24.904Z,8.25
2023-07-03T15:08:51.520Z,9.48
2023-07-03T15:11:20.990Z,10.32
2023-07-03T15:13:47.841Z,8.45
2023-07-03T15:16:14.711Z,8.32
2023-07-03T15:18:46.626Z,9.90
2023-07-03T15:21:15.439Z,7.95
2023-07-03T15:23:44.379Z,8.88
2023-07-03T15:26:11.384Z,8.52
2023-07-03T15:28:40.272Z,9.15
2023-07-03T15:31:07.519Z,7.93
2023-07-03T15:33:38.848Z,9.13
2023-07-03T15:36:05.570Z,10.65
2023-07-03T15:38:32.377Z,8.75
2023-07-03T15:40:59.366Z,9.38
2023-07-03T15:43:26.388Z,7.97
2023-07-03T15:46:02.260Z,7.95
2023-07-03T15:48:29.064Z,8.88
2023-07-03T15:50:57.476Z,8.32
2023-07-03T15:53:24.736Z,8.23
2023-07-03T15:56:04.079Z,8.23
2023-07-03T15:58:32.655Z,9.45
2023-07-03T16:01:00.799Z,9.43
2023-07-03T16:03:28.282Z,8.63
2023-07-03T16:06:01.175Z,12.75
2023-07-03T16:08:33.674Z,9.55
2023-07-03T16:11:02.321Z,10.75
2023-07-03T16:13:29.107Z,10.68
2023-07-03T16:15:55.855Z,8.63
2023-07-03T16:18:24.714Z,11.07
2023-07-03T16:21:00.213Z,10.27
2023-07-03T16:23:28.019Z,7.95
2023-07-03T16:26:05.049Z,10.73
2023-07-03T16:28:34.806Z,9.07
2023-07-03T16:31:18.933Z,7.63
2023-07-03T16:33:49.495Z,10.00
2023-07-03T16:36:22.939Z,8.15
2023-07-03T16:38:57.409Z,7.53
2023-07-03T16:41:24.962Z,8.40
2023-07-03T16:43:56.871Z,8.05
2023-07-03T16:46:27.406Z,9.20
2023-07-03T16:48:55.090Z,8.95
2023-07-03T16:51:24.478Z,8.15
2023-07-03T16:53:51.218Z,7.22
2023-07-03T16:56:22.135Z,10.25
2023-07-03T17:01:23.124Z,7.75
2023-07-03T17:03:53.084Z,8.68
2023-07-03T17:06:21.496Z,7.95
2023-07-03T17:08:50.533Z,7.95
2023-07-03T17:11:17.249Z,9.40
2023-07-03T17:13:44.865Z,10.75
2023-07-03T17:16:16.408Z,7.50
2023-07-03T17:18:45.709Z,7.88
2023-07-03T17:21:14.708Z,8.00
2023-07-03T17:23:42.189Z,7.35
2023-07-03T17:26:11.864Z,8.65
2023-07-03T17:28:38.708Z,7.88
2023-07-03T17:31:05.950Z,8.82
2023-07-03T17:33:32.910Z,8.30
2023-07-03T17:36:02.389Z,8.70
2023-07-03T17:38:29.776Z,8.48
2023-07-03T17:40:56.510Z,8.73
2023-07-03T17:43:26.180Z,8.43
2023-07-03T17:45:55.891Z,8.45
2023-07-03T17:48:22.984Z,9.05
2023-07-03T17:50:51.047Z,8.43
2023-07-03T17:53:21.909Z,9.05
2023-07-03T17:55:48.904Z,8.35
2023-07-03T17:58:17.994Z,8.40
2023-07-03T18:00:45.166Z,10.68
2023-07-03T18:03:15.363Z,8.90
2023-07-03T18:05:42.137Z,8.67
2023-07-03T18:08:08.975Z,10.13
2023-07-03T18:10:35.885Z,9.68
2023-07-03T18:13:02.627Z,9.30
2023-07-03T18:15:47.415Z,9.57
2023-07-03T18:18:18.125Z,9.60
2023-07-03T18:20:45.796Z,8.98
2023-07-03T18:23:12.685Z,10.30
2023-07-03T18:25:40.070Z,9.65
2023-07-03T18:28:06.842Z,8.93
2023-07-03T18:30:35.868Z,10.70
2023-07-03T18:33:02.811Z,10.70
2023-07-03T18:35:29.563Z,8.75
2023-07-03T18:37:56.306Z,10.07
2023-07-03T18:40:23.169Z,9.40
2023-07-03T18:42:52.027Z,8.82
2023-07-03T18:45:18.780Z,8.95
2023-07-03T18:47:45.548Z,11.20
2023-07-03T18:50:14.456Z,10.52
2023-07-03T18:52:43.301Z,15.73
2023-07-03T18:55:10.231Z,13.45
2023-07-03T18:57:39.229Z,10.18
2023-07-03T19:00:08.072Z,12.13
2023-07-03T19:02:37.142Z,12.15
2023-07-03T19:05:06.445Z,12.43
2023-07-03T19:07:33.616Z,9.52
2023-07-03T19:10:16.753Z,13.27
2023-07-03T19:12:44.154Z,12.18
2023-07-03T19:15:11.052Z,11.85
2023-07-03T19:17:37.992Z,10.70
2023-07-03T19:20:04.996Z,12.63
2023-07-03T19:22:31.732Z,11.48
2023-07-03T19:25:00.515Z,13.77
2023-07-03T19:27:27.172Z,17.42
2023-07-03T19:29:53.886Z,12.32
2023-07-03T19:32:23.130Z,12.68
2023-07-03T19:34:54.613Z,12.65
2023-07-03T19:37:21.356Z,13.10
2023-07-03T19:39:48.077Z,12.48
2023-07-03T19:42:16.906Z,12.73
2023-07-03T19:44:43.635Z,12.02
2023-07-03T19:47:10.432Z,12.25
2023-07-03T19:49:37.177Z,13.32
2023-07-03T19:52:04.136Z,12.20
2023-07-03T19:54:31.023Z,12.13
2023-07-03T19:57:00.045Z,11.75
2023-07-03T19:59:26.812Z,11.70
2023-07-03T20:01:55.646Z,12.32
2023-07-03T20:04:25.447Z,11.23
2023-07-03T20:06:52.760Z,20.00
2023-07-03T20:09:21.718Z,11.60
2023-07-03T20:11:51.284Z,11.35
2023-07-03T20:14:18.818Z,12.23
2023-07-03T20:16:47.934Z,14.73
2023-07-03T20:19:14.709Z,16.85
2023-07-03T20:21:41.402Z,10.00
2023-07-03T20:24:08.216Z,17.98
2023-07-03T20:26:34.925Z,24.77
2023-07-03T20:29:03.962Z,19.48
2023-07-03T20:31:30.908Z,21.80
2023-07-03T20:34:00.357Z,15.55
2023-07-03T20:36:29.274Z,13.43
2023-07-03T20:38:57.861Z,13.70
2023-07-03T20:41:24.758Z,10.52
2023-07-03T20:43:53.594Z,13.05
2023-07-03T20:46:22.419Z,12.18
2023-07-03T20:48:55.519Z,13.55
2023-07-03T20:51:27.860Z,9.93
2023-07-03T20:53:57.507Z,12.52
2023-07-03T20:56:28.017Z,9.68
2023-07-03T20:58:58.753Z,9.65
2023-07-03T21:01:30.579Z,9.63
2023-07-03T21:04:00.764Z,9.80
2023-07-03T21:06:29.037Z,10.60
2023-07-03T21:08:56.418Z,9.85
2023-07-03T21:11:24.484Z,11.85
2023-07-03T21:13:52.150Z,10.30
2023-07-03T21:16:20.330Z,11.18
2023-07-03T21:18:47.059Z,10.68
2023-07-03T21:21:18.315Z,12.60
2023-07-03T21:23:45.134Z,17.05
2023-07-03T21:26:12.692Z,12.32
2023-07-03T21:28:39.359Z,12.40
2023-07-03T21:31:06.364Z,11.55
2023-07-03T21:33:33.768Z,13.50
2023-07-03T21:36:13.486Z,11.70
2023-07-03T21:38:43.377Z,13.70
2023-07-03T21:41:16.241Z,10.52
2023-07-03T21:43:48.001Z,9.75
2023-07-03T21:46:16.978Z,10.07
2023-07-03T21:48:43.992Z,11.85
2023-07-03T21:51:16.262Z,9.82
2023-07-03T21:53:43.284Z,10.50
2023-07-03T21:56:12.421Z,10.23
2023-07-03T21:58:39.566Z,12.38
2023-07-03T22:01:15.784Z,11.88
2023-07-03T22:03:44.957Z,10.82
2023-07-03T22:06:13.814Z,10.70
2023-07-03T22:08:40.517Z,9.98
2023-07-03T22:11:09.315Z,15.23
2023-07-03T22:13:38.269Z,10.73
2023-07-03T22:16:05.357Z,10.40
2023-07-03T22:18:32.081Z,10.73
2023-07-03T22:20:58.809Z,10.85
2023-07-03T22:23:31.613Z,11.65
2023-07-03T22:26:01.665Z,11.23
2023-07-03T22:28:28.883Z,10.35
2023-07-03T22:30:55.661Z,10.82
2023-07-03T22:33:22.847Z,11.05
2023-07-03T22:35:49.844Z,10.48
2023-07-03T22:38:16.677Z,10.13
2023-07-03T22:40:46.572Z,10.60
2023-07-03T22:43:13.228Z,11.05
2023-07-03T22:45:40.016Z,9.68
2023-07-03T22:48:06.790Z,10.82
2023-07-03T22:50:34.071Z,12.60
2023-07-03T22:53:02.920Z,11.32
2023-07-03T22:55:29.740Z,10.45
2023-07-03T22:57:58.866Z,11.63
2023-07-03T23:00:28.591Z,11.98
2023-07-03T23:02:57.531Z,11.82
2023-07-03T23:05:29.114Z,11.05
2023-07-03T23:07:57.959Z,11.38
2023-07-03T23:10:24.725Z,11.45
2023-07-03T23:12:51.509Z,11.32
2023-07-03T23:15:20.406Z,10.77
2023-07-03T23:17:47.390Z,11.60
2023-07-03T23:20:15.751Z,10.27
2023-07-03T23:22:42.923Z,11.02
2023-07-03T23:25:14.836Z,10.88
2023-07-03T23:27:46.253Z,12.70
2023-07-03T23:30:13.205Z,10.88
2023-07-03T23:32:42.115Z,11.43
2023-07-03T23:35:12.168Z,11.07
2023-07-03T23:37:44.766Z,11.02
2023-07-03T23:40:12.185Z,16.30
2023-07-03T23:42:39.981Z,10.65
2023-07-03T23:45:07.371Z,11.05
2023-07-03T23:47:34.256Z,11.75
2023-07-03T23:50:00.914Z,10.32
2023-07-03T23:52:27.528Z,11.25
2023-07-03T23:54:54.642Z,11.48
2023-07-03T23:57:23.125Z,10.15
2023-07-03T23:59:57.062Z,10.80
